createdAt,value
2023-03-15T00:04:38.977Z,100179.77
2023-03-15T00:10:04.640Z,100195.30
2023-03-15T00:15:32.127Z,100203.80
2023-03-15T00:20:38.524Z,100208.50
2023-03-15T00:25:45.530Z,100216.55
2023-03-15T00:30:50.808Z,100228.95
2023-03-15T00:35:56.383Z,100239.42
2023-03-15T00:41:06.510Z,100249.77
2023-03-15T00:46:13.230Z,100254.50
2023-03-15T00:51:21.494Z,100263.91
2023-03-15T00:56:30.171Z,100273.02
2023-03-15T01:01:35.641Z,100278.96
2023-03-15T01:06:42.488Z,100280.25
2023-03-15T01:11:47.842Z,100289.61
2023-03-15T01:16:53.349Z,100295.52
2023-03-15T01:21:58.683Z,100299.61
2023-03-15T01:27:04.234Z,100310.78
2023-03-15T01:32:10.187Z,100314.60
2023-03-15T01:37:15.881Z,100321.10
2023-03-15T01:42:21.243Z,100327.58
2023-03-15T01:47:27.647Z,100334.48
2023-03-15T01:52:37.229Z,100336.85
2023-03-15T01:57:46.199Z,100338.09
2023-03-15T02:02:55.792Z,100344.09
2023-03-15T02:08:01.852Z,100347.59
2023-03-15T02:13:08.656Z,100345.48
2023-03-15T02:18:14.038Z,100350.63
2023-03-15T02:23:24.194Z,100358.05
2023-03-15T02:28:29.987Z,100359.63
2023-03-15T02:33:41.981Z,100365.94
2023-03-15T02:38:48.180Z,100372.75
2023-03-15T02:43:56.958Z,100377.42
2023-03-15T02:49:02.952Z,100380.45
2023-03-15T02:54:08.461Z,100388.84
2023-03-15T02:59:13.751Z,100402.17
2023-03-15T03:04:19.200Z,100407.84
2023-03-15T03:09:24.897Z,100411.40
2023-03-15T03:14:31.333Z,100417.95
2023-03-15T03:19:36.674Z,100424.79
2023-03-15T03:24:45.970Z,100435.98
2023-03-15T03:29:51.827Z,100439.50
2023-03-15T03:34:57.309Z,100443.15
2023-03-15T03:40:07.772Z,100449.70
2023-03-15T03:45:13.442Z,100455.05
2023-03-15T03:50:18.943Z,100463.08
2023-03-15T03:55:25.461Z,100469.90
2023-03-15T04:00:30.788Z,100477.58
2023-03-15T04:05:36.674Z,100485.84
2023-03-15T04:10:42.099Z,100484.10
2023-03-15T04:15:48.128Z,100487.75
2023-03-15T04:20:54.905Z,100498.81
2023-03-15T04:26:00.356Z,100503.39
2023-03-15T04:31:10.766Z,100513.45
2023-03-15T04:36:19.058Z,100516.11
2023-03-15T04:41:27.040Z,100514.69
2023-03-15T04:46:33.045Z,100514.20
2023-03-15T04:51:38.491Z,100516.97
2023-03-15T04:56:43.930Z,100523.14
2023-03-15T05:01:49.462Z,100527.69
2023-03-15T05:06:54.974Z,100533.96
2023-03-15T05:12:00.355Z,100544.93
2023-03-15T05:17:05.697Z,100556.67
2023-03-15T05:22:11.361Z,100560.98
2023-03-15T05:27:16.627Z,100571.00
2023-03-15T05:32:26.867Z,100577.14
2023-03-15T05:37:32.850Z,100589.85
2023-03-15T05:42:38.222Z,100598.70
2023-03-15T05:47:44.001Z,100610.58
2023-03-15T05:52:52.028Z,100617.27
2023-03-15T05:57:57.322Z,100622.79
2023-03-15T06:03:02.783Z,100631.77
2023-03-15T06:08:08.141Z,100639.13
2023-03-15T06:13:13.649Z,100648.95
2023-03-15T06:18:18.939Z,100656.26
2023-03-15T06:23:24.283Z,100666.56
2023-03-15T06:28:29.584Z,100670.36
2023-03-15T06:33:34.940Z,100676.94
2023-03-15T06:38:41.779Z,100695.36
2023-03-15T06:43:47.126Z,100705.10
2023-03-15T06:48:52.401Z,100715.23
2023-03-15T06:53:57.736Z,100725.59
2023-03-15T06:59:03.158Z,100728.56
2023-03-15T07:04:09.709Z,100737.50
2023-03-15T07:09:15.143Z,100745.46
2023-03-15T07:14:21.235Z,100751.42
2023-03-15T07:19:26.657Z,100746.22
2023-03-15T07:24:32.439Z,100749.02
2023-03-15T07:29:37.930Z,100752.39
2023-03-15T07:34:43.554Z,100759.30
2023-03-15T07:39:48.921Z,100767.50
2023-03-15T07:44:54.346Z,100775.77
2023-03-15T07:50:00.205Z,100778.44
2023-03-15T07:55:08.736Z,100784.41
2023-03-15T08:00:16.565Z,100793.11
2023-03-15T08:05:22.147Z,100797.20
2023-03-15T08:10:28.015Z,100803.30
2023-03-15T08:15:33.547Z,100816.30
2023-03-15T08:20:38.865Z,100819.58
2023-03-15T08:25:44.802Z,100823.20
2023-03-15T08:30:50.443Z,100831.94
2023-03-15T08:35:56.434Z,100832.10
2023-03-15T08:41:01.944Z,100838.44
2023-03-15T08:46:07.564Z,100838.75
2023-03-15T08:51:13.558Z,100848.34
2023-03-15T08:56:19.042Z,100859.52
2023-03-15T09:01:24.396Z,100867.60
2023-03-15T09:06:29.802Z,100875.98
2023-03-15T09:11:35.079Z,100882.70
2023-03-15T09:16:40.487Z,100892.45
2023-03-15T09:21:47.232Z,100901.88
2023-03-15T09:26:52.946Z,100903.38
2023-03-15T09:31:58.321Z,100909.46
2023-03-15T09:37:03.970Z,100914.19
2023-03-15T09:42:16.270Z,100924.77
2023-03-15T09:47:35.560Z,100925.60
2023-03-15T09:52:46.590Z,100936.12
2023-03-15T09:57:57.232Z,100936.98
2023-03-15T10:03:09.870Z,100944.14
2023-03-15T10:08:17.647Z,100949.65
2023-03-15T10:13:45.733Z,100962.50
2023-03-15T10:19:02.638Z,100961.66
2023-03-15T10:24:16.127Z,100960.33
2023-03-15T10:29:24.803Z,100956.45
2023-03-15T10:34:30.782Z,100967.29
2023-03-15T10:39:36.096Z,100969.49
2023-03-15T10:44:41.334Z,100975.73
2023-03-15T10:49:46.859Z,100973.47
2023-03-15T10:54:58.812Z,100975.42
2023-03-15T11:00:26.915Z,100978.27
2023-03-15T11:05:39.000Z,100980.95
2023-03-15T11:10:45.891Z,100976.45
2023-03-15T11:16:04.551Z,100985.36
2023-03-15T11:21:14.842Z,100985.80
2023-03-15T11:26:32.374Z,100991.42
2023-03-15T11:31:38.929Z,100983.12
2023-03-15T11:36:49.061Z,100983.67
2023-03-15T11:42:04.999Z,100981.10
2023-03-15T11:47:16.821Z,100984.05
2023-03-15T11:52:24.948Z,100988.07
2023-03-15T11:57:45.510Z,100991.02
2023-03-15T12:02:54.108Z,100984.98
2023-03-15T12:08:15.633Z,100987.11
2023-03-15T12:13:25.498Z,100983.06
2023-03-15T12:18:38.916Z,100981.48
2023-03-15T12:23:58.082Z,100982.88
2023-03-15T12:29:18.418Z,100985.25
2023-03-15T12:34:43.748Z,100994.92
2023-03-15T12:39:51.577Z,100992.04
2023-03-15T12:45:37.595Z,100993.55
2023-03-15T12:50:52.837Z,100993.92
2023-03-15T12:56:11.478Z,100993.27
2023-03-15T13:01:18.650Z,100992.68
2023-03-15T13:06:37.509Z,100995.77
2023-03-15T13:11:51.360Z,100992.69
2023-03-15T13:17:05.818Z,100989.59
2023-03-15T13:22:22.225Z,100990.63
2023-03-15T13:27:45.333Z,100993.14
2023-03-15T13:33:01.354Z,100996.17
2023-03-15T13:38:22.199Z,101009.56
2023-03-15T13:43:30.093Z,101033.90
2023-03-15T13:48:37.200Z,101063.25
2023-03-15T13:53:49.855Z,101080.67
2023-03-15T13:58:56.806Z,101081.52
2023-03-15T14:04:06.346Z,101075.42
2023-03-15T14:09:18.099Z,101066.83
2023-03-15T14:14:28.069Z,101063.25
2023-03-15T14:19:34.931Z,101057.36
2023-03-15T14:24:42.273Z,101054.67
2023-03-15T14:29:50.304Z,101048.12
2023-03-15T14:35:02.685Z,101047.11
2023-03-15T14:40:16.044Z,101048.21
2023-03-15T14:45:23.070Z,101051.60
2023-03-15T14:50:33.518Z,101056.08
2023-03-15T14:55:39.244Z,101050.66
2023-03-15T15:00:46.991Z,101046.42
2023-03-15T15:05:52.437Z,101049.67
2023-03-15T15:10:58.613Z,101050.23
2023-03-15T15:16:04.912Z,101058.92
2023-03-15T15:21:18.837Z,101058.80
2023-03-15T15:26:27.136Z,101062.48
2023-03-15T15:31:35.602Z,101074.60
2023-03-15T15:36:42.396Z,101073.78
2023-03-15T15:41:47.999Z,101081.00
2023-03-15T15:46:53.724Z,101085.08
2023-03-15T15:51:59.114Z,101093.54
2023-03-15T15:57:04.927Z,101104.65
2023-03-15T16:02:17.508Z,101113.92
2023-03-15T16:07:23.926Z,101126.41
2023-03-15T16:12:29.688Z,101144.29
2023-03-15T16:17:35.357Z,101174.61
2023-03-15T16:22:43.805Z,101192.40
2023-03-15T16:27:49.140Z,101202.40
2023-03-15T16:32:55.338Z,101191.81
2023-03-15T16:38:01.736Z,101163.86
2023-03-15T16:43:08.749Z,101174.62
2023-03-15T16:48:14.832Z,101179.11
2023-03-15T16:53:20.609Z,101186.83
2023-03-15T16:58:26.661Z,101202.11
2023-03-15T17:03:32.995Z,101209.39
2023-03-15T17:08:38.631Z,101224.27
2023-03-15T17:13:44.063Z,101245.73
2023-03-15T17:18:49.604Z,101256.35
2023-03-15T17:23:55.120Z,101254.98
2023-03-15T17:29:01.123Z,101263.15
2023-03-15T17:34:06.545Z,101267.60
2023-03-15T17:39:17.129Z,101277.32
2023-03-15T17:44:23.399Z,101279.55
2023-03-15T17:49:28.679Z,101287.95
2023-03-15T17:54:34.814Z,101292.08
2023-03-15T17:59:40.264Z,101293.33
2023-03-15T18:04:46.272Z,101301.10
2023-03-15T18:09:51.597Z,101308.70
2023-03-15T18:14:59.563Z,101309.76
2023-03-15T18:20:08.820Z,101317.61
2023-03-15T18:25:19.517Z,101327.49
2023-03-15T18:30:26.872Z,101329.98
2023-03-15T18:35:35.016Z,101328.51
2023-03-15T18:40:40.488Z,101331.77
2023-03-15T18:45:45.821Z,101340.91
2023-03-15T18:50:52.286Z,101352.84
2023-03-15T18:55:57.740Z,101356.25
2023-03-15T19:01:03.140Z,101354.03
2023-03-15T19:06:11.790Z,101354.27
2023-03-15T19:11:17.808Z,101358.73
2023-03-15T19:16:23.924Z,101367.30
2023-03-15T19:21:29.478Z,101372.48
2023-03-15T19:26:34.973Z,101377.72
2023-03-15T19:31:40.338Z,101382.65
2023-03-15T19:36:45.741Z,101390.99
2023-03-15T19:41:51.038Z,101395.13
2023-03-15T19:46:56.461Z,101403.80
2023-03-15T19:52:01.722Z,101407.64
2023-03-15T19:57:07.180Z,101411.52
2023-03-15T20:02:13.705Z,101419.55
2023-03-15T20:07:20.157Z,101420.85
2023-03-15T20:12:25.523Z,101424.73
2023-03-15T20:17:30.933Z,101431.43
2023-03-15T20:22:36.490Z,101435.89
2023-03-15T20:27:42.700Z,101441.50
2023-03-15T20:32:48.076Z,101443.76
2023-03-15T20:37:53.657Z,101447.39
2023-03-15T20:42:58.946Z,101452.48
2023-03-15T20:48:04.976Z,101451.23
2023-03-15T20:53:10.361Z,101453.88
2023-03-15T20:58:15.688Z,101454.23
2023-03-15T21:03:23.065Z,101464.02
2023-03-15T21:08:28.775Z,101467.17
2023-03-15T21:13:34.541Z,101473.10
2023-03-15T21:18:40.030Z,101476.35
2023-03-15T21:23:45.589Z,101478.15
2023-03-15T21:28:51.263Z,101483.80
2023-03-15T21:33:56.749Z,101480.21
2023-03-15T21:39:02.100Z,101478.71
2023-03-15T21:44:08.407Z,101486.05
2023-03-15T21:49:13.823Z,101486.62
2023-03-15T21:54:19.292Z,101486.83
2023-03-15T21:59:27.982Z,101492.55
2023-03-15T22:04:34.100Z,101497.10
2023-03-15T22:09:41.282Z,101502.64
2023-03-15T22:14:51.616Z,101509.16
2023-03-15T22:19:59.614Z,101516.17
2023-03-15T22:25:05.481Z,101515.58
2023-03-15T22:30:14.609Z,101524.60
2023-03-15T22:35:20.437Z,101529.40
2023-03-15T22:40:27.957Z,101537.06
2023-03-15T22:45:33.615Z,101544.02
2023-03-15T22:50:38.990Z,101545.91
2023-03-15T22:55:45.195Z,101549.02
2023-03-15T23:00:51.137Z,101550.73
2023-03-15T23:05:57.634Z,101557.32
2023-03-15T23:11:03.889Z,101556.26
2023-03-15T23:16:09.979Z,101559.27
2023-03-15T23:21:15.937Z,101564.08
2023-03-15T23:26:25.242Z,101566.85
2023-03-15T23:31:30.662Z,101570.30
2023-03-15T23:36:36.310Z,101569.67
2023-03-15T23:41:41.638Z,101572.62
2023-03-15T23:46:46.929Z,101577.98
2023-03-15T23:51:54.387Z,101579.95
2023-03-15T23:57:00.159Z,101581.09
